sensor_id;sensor_type;location;lat;lon;timestamp;temperature;humidity
2967;DHT22;1493;51.496;7.210;2023-10-08T00:01:03;18.60;99.90
2967;DHT22;1493;51.496;7.210;2023-10-08T00:03:31;18.60;99.90
2967;DHT22;1493;51.496;7.210;2023-10-08T00:06:02;18.60;99.90
2967;DHT22;1493;51.496;7.210;2023-10-08T00:08:32;18.70;99.90
2967;DHT22;1493;51.496;7.210;2023-10-08T00:10:58;18.60;99.90
2967;DHT22;1493;51.496;7.210;2023-10-08T00:13:33;18.60;99.90
2967;DHT22;1493;51.496;7.210;2023-10-08T00:16:05;18.60;99.90
2967;DHT22;1493;51.496;7.210;2023-10-08T00:18:35;18.60;99.90
2967;DHT22;1493;51.496;7.210;2023-10-08T00:21:02;18.60;99.90
2967;DHT22;1493;51.496;7.210;2023-10-08T00:23:41;18.70;99.90
2967;DHT22;1493;51.496;7.210;2023-10-08T00:26:09;18.70;99.90
2967;DHT22;1493;51.496;7.210;2023-10-08T00:28:37;18.60;99.90
2967;DHT22;1493;51.496;7.210;2023-10-08T00:31:05;18.60;99.90
2967;DHT22;1493;51.496;7.210;2023-10-08T00:33:36;18.50;99.90
2967;DHT22;1493;51.496;7.210;2023-10-08T00:36:04;18.50;99.90
2967;DHT22;1493;51.496;7.210;2023-10-08T00:38:43;18.40;99.90
2967;DHT22;1493;51.496;7.210;2023-10-08T00:41:12;18.40;99.90
2967;DHT22;1493;51.496;7.210;2023-10-08T00:43:41;18.40;99.90
2967;DHT22;1493;51.496;7.210;2023-10-08T00:46:10;18.40;99.90
2967;DHT22;1493;51.496;7.210;2023-10-08T00:48:44;18.40;99.90
2967;DHT22;1493;51.496;7.210;2023-10-08T00:51:11;18.50;99.90
2967;DHT22;1493;51.496;7.210;2023-10-08T00:53:54;18.40;99.90
2967;DHT22;1493;51.496;7.210;2023-10-08T00:56:25;18.40;99.90
2967;DHT22;1493;51.496;7.210;2023-10-08T00:58:57;18.40;99.90
2967;DHT22;1493;51.496;7.210;2023-10-08T01:01:25;18.40;99.90
2967;DHT22;1493;51.496;7.210;2023-10-08T01:03:51;18.30;99.90
2967;DHT22;1493;51.496;7.210;2023-10-08T01:06:20;18.30;99.90
2967;DHT22;1493;51.496;7.210;2023-10-08T01:08:49;18.40;99.90
2967;DHT22;1493;51.496;7.210;2023-10-08T01:11:21;18.40;99.90
2967;DHT22;1493;51.496;7.210;2023-10-08T01:13:58;18.40;99.90
2967;DHT22;1493;51.496;7.210;2023-10-08T01:16:26;18.40;99.90
2967;DHT22;1493;51.496;7.210;2023-10-08T01:18:53;18.30;99.90
2967;DHT22;1493;51.496;7.210;2023-10-08T01:21:20;18.30;99.90
2967;DHT22;1493;51.496;7.210;2023-10-08T01:24:01;18.30;99.90
2967;DHT22;1493;51.496;7.210;2023-10-08T01:26:31;18.30;99.90
2967;DHT22;1493;51.496;7.210;2023-10-08T01:28:59;18.20;99.90
2967;DHT22;1493;51.496;7.210;2023-10-08T01:31:32;18.20;99.90
2967;DHT22;1493;51.496;7.210;2023-10-08T01:33:59;18.20;99.90
2967;DHT22;1493;51.496;7.210;2023-10-08T01:36:30;18.20;99.90
2967;DHT22;1493;51.496;7.210;2023-10-08T01:38:57;18.20;99.90
2967;DHT22;1493;51.496;7.210;2023-10-08T01:41:28;18.30;99.90
2967;DHT22;1493;51.496;7.210;2023-10-08T01:43:56;18.30;99.90
2967;DHT22;1493;51.496;7.210;2023-10-08T01:46:24;18.40;99.90
2967;DHT22;1493;51.496;7.210;2023-10-08T01:48:52;18.40;99.90
2967;DHT22;1493;51.496;7.210;2023-10-08T01:51:28;18.40;99.90
2967;DHT22;1493;51.496;7.210;2023-10-08T01:54:03;18.40;99.90
2967;DHT22;1493;51.496;7.210;2023-10-08T01:56:40;18.40;99.90
2967;DHT22;1493;51.496;7.210;2023-10-08T01:59:08;18.30;99.90
2967;DHT22;1493;51.496;7.210;2023-10-08T02:01:35;18.30;99.90
2967;DHT22;1493;51.496;7.210;2023-10-08T02:04:04;18.30;99.90
2967;DHT22;1493;51.496;7.210;2023-10-08T02:06:32;18.20;99.90
2967;DHT22;1493;51.496;7.210;2023-10-08T02:08:58;18.20;99.90
2967;DHT22;1493;51.496;7.210;2023-10-08T02:11:31;18.20;99.90
2967;DHT22;1493;51.496;7.210;2023-10-08T02:13:59;18.20;99.90
2967;DHT22;1493;51.496;7.210;2023-10-08T02:16:27;18.20;99.90
2967;DHT22;1493;51.496;7.210;2023-10-08T02:18:54;18.20;99.90
2967;DHT22;1493;51.496;7.210;2023-10-08T02:21:21;18.20;99.90
2967;DHT22;1493;51.496;7.210;2023-10-08T02:23:47;18.20;99.90
2967;DHT22;1493;51.496;7.210;2023-10-08T02:26:14;18.20;99.90
2967;DHT22;1493;51.496;7.210;2023-10-08T02:28:41;18.10;99.90
2967;DHT22;1493;51.496;7.210;2023-10-08T02:31:09;18.10;99.90
2967;DHT22;1493;51.496;7.210;2023-10-08T02:33:36;18.20;99.90
2967;DHT22;1493;51.496;7.210;2023-10-08T02:36:04;18.20;99.90
2967;DHT22;1493;51.496;7.210;2023-10-08T02:38:31;18.10;99.90
2967;DHT22;1493;51.496;7.210;2023-10-08T02:41:03;18.20;99.90
2967;DHT22;1493;51.496;7.210;2023-10-08T02:43:32;18.10;99.90
2967;DHT22;1493;51.496;7.210;2023-10-08T02:45:59;18.10;99.90
2967;DHT22;1493;51.496;7.210;2023-10-08T02:48:27;18.10;99.90
2967;DHT22;1493;51.496;7.210;2023-10-08T02:50:55;18.10;99.90
2967;DHT22;1493;51.496;7.210;2023-10-08T02:53:32;18.10;99.90
2967;DHT22;1493;51.496;7.210;2023-10-08T02:55:59;18.10;99.90
2967;DHT22;1493;51.496;7.210;2023-10-08T02:58:26;18.00;99.90
2967;DHT22;1493;51.496;7.210;2023-10-08T03:00:53;18.10;99.90
2967;DHT22;1493;51.496;7.210;2023-10-08T03:03:20;18.10;99.90
2967;DHT22;1493;51.496;7.210;2023-10-08T03:05:52;18.10;99.90
2967;DHT22;1493;51.496;7.210;2023-10-08T03:08:22;18.10;99.90
2967;DHT22;1493;51.496;7.210;2023-10-08T03:10:50;18.20;99.90
2967;DHT22;1493;51.496;7.210;2023-10-08T03:13:21;18.10;99.90
2967;DHT22;1493;51.496;7.210;2023-10-08T03:15:48;18.10;99.90
2967;DHT22;1493;51.496;7.210;2023-10-08T03:18:33;18.00;99.90
2967;DHT22;1493;51.496;7.210;2023-10-08T03:21:03;18.10;99.90
2967;DHT22;1493;51.496;7.210;2023-10-08T03:23:31;17.90;99.90
2967;DHT22;1493;51.496;7.210;2023-10-08T03:26:01;18.00;99.90
2967;DHT22;1493;51.496;7.210;2023-10-08T03:28:36;18.00;99.90
2967;DHT22;1493;51.496;7.210;2023-10-08T03:31:03;18.00;99.90
2967;DHT22;1493;51.496;7.210;2023-10-08T03:33:31;18.00;99.90
2967;DHT22;1493;51.496;7.210;2023-10-08T03:36:02;18.00;99.90
2967;DHT22;1493;51.496;7.210;2023-10-08T03:38:39;18.00;99.90
2967;DHT22;1493;51.496;7.210;2023-10-08T03:41:16;18.00;99.90
2967;DHT22;1493;51.496;7.210;2023-10-08T03:43:46;18.00;99.90
2967;DHT22;1493;51.496;7.210;2023-10-08T03:46:22;18.00;99.90
2967;DHT22;1493;51.496;7.210;2023-10-08T03:48:50;18.00;99.90
2967;DHT22;1493;51.496;7.210;2023-10-08T03:51:19;18.00;99.90
2967;DHT22;1493;51.496;7.210;2023-10-08T03:53:47;17.90;99.90
2967;DHT22;1493;51.496;7.210;2023-10-08T03:56:25;17.90;99.90
2967;DHT22;1493;51.496;7.210;2023-10-08T03:58:55;17.90;99.90
2967;DHT22;1493;51.496;7.210;2023-10-08T04:01:26;17.90;99.90
2967;DHT22;1493;51.496;7.210;2023-10-08T04:03:57;17.90;99.90
2967;DHT22;1493;51.496;7.210;2023-10-08T04:06:28;17.90;99.90
2967;DHT22;1493;51.496;7.210;2023-10-08T04:08:56;17.90;99.90
2967;DHT22;1493;51.496;7.210;2023-10-08T04:11:38;17.90;99.90
2967;DHT22;1493;51.496;7.210;2023-10-08T04:14:17;17.90;99.90
2967;DHT22;1493;51.496;7.210;2023-10-08T04:16:45;17.90;99.90
2967;DHT22;1493;51.496;7.210;2023-10-08T04:19:13;17.80;99.90
2967;DHT22;1493;51.496;7.210;2023-10-08T04:21:45;17.80;99.90
2967;DHT22;1493;51.496;7.210;2023-10-08T04:24:19;17.80;99.90
2967;DHT22;1493;51.496;7.210;2023-10-08T04:26:51;17.80;99.90
2967;DHT22;1493;51.496;7.210;2023-10-08T04:29:19;17.80;99.90
2967;DHT22;1493;51.496;7.210;2023-10-08T04:31:48;17.80;99.90
2967;DHT22;1493;51.496;7.210;2023-10-08T04:34:26;17.80;99.90
2967;DHT22;1493;51.496;7.210;2023-10-08T04:36:55;17.80;99.90
2967;DHT22;1493;51.496;7.210;2023-10-08T04:39:26;17.70;99.90
2967;DHT22;1493;51.496;7.210;2023-10-08T04:41:57;17.70;99.90
2967;DHT22;1493;51.496;7.210;2023-10-08T04:44:31;17.80;99.90
2967;DHT22;1493;51.496;7.210;2023-10-08T04:46:59;17.80;99.90
2967;DHT22;1493;51.496;7.210;2023-10-08T04:49:31;17.80;99.90
2967;DHT22;1493;51.496;7.210;2023-10-08T04:52:00;17.70;99.90
2967;DHT22;1493;51.496;7.210;2023-10-08T04:54:31;17.70;99.90
2967;DHT22;1493;51.496;7.210;2023-10-08T04:56:58;17.60;99.90
2967;DHT22;1493;51.496;7.210;2023-10-08T04:59:26;17.70;99.90
2967;DHT22;1493;51.496;7.210;2023-10-08T05:02:00;17.70;99.90
2967;DHT22;1493;51.496;7.210;2023-10-08T05:04:45;17.70;99.90
2967;DHT22;1493;51.496;7.210;2023-10-08T05:07:23;17.70;99.90
2967;DHT22;1493;51.496;7.210;2023-10-08T05:10:07;17.60;99.90
2967;DHT22;1493;51.496;7.210;2023-10-08T05:12:57;17.60;99.90
2967;DHT22;1493;51.496;7.210;2023-10-08T05:15:40;17.60;99.90
2967;DHT22;1493;51.496;7.210;2023-10-08T05:18:15;17.60;99.90
2967;DHT22;1493;51.496;7.210;2023-10-08T05:20:49;17.50;99.90
2967;DHT22;1493;51.496;7.210;2023-10-08T05:23:29;17.50;99.90
2967;DHT22;1493;51.496;7.210;2023-10-08T05:26:09;17.50;99.90
2967;DHT22;1493;51.496;7.210;2023-10-08T05:28:46;17.50;99.90
2967;DHT22;1493;51.496;7.210;2023-10-08T05:31:26;17.40;99.90
2967;DHT22;1493;51.496;7.210;2023-10-08T05:34:12;17.50;99.90
2967;DHT22;1493;51.496;7.210;2023-10-08T05:36:44;17.40;99.90
2967;DHT22;1493;51.496;7.210;2023-10-08T05:39:38;17.40;99.90
2967;DHT22;1493;51.496;7.210;2023-10-08T05:42:08;17.40;99.90
2967;DHT22;1493;51.496;7.210;2023-10-08T05:44:43;17.20;99.90
2967;DHT22;1493;51.496;7.210;2023-10-08T05:47:14;17.30;99.90
2967;DHT22;1493;51.496;7.210;2023-10-08T05:50:07;17.30;99.90
2967;DHT22;1493;51.496;7.210;2023-10-08T05:52:50;17.30;99.90
2967;DHT22;1493;51.496;7.210;2023-10-08T05:55:29;17.20;99.90
2967;DHT22;1493;51.496;7.210;2023-10-08T05:58:02;17.20;99.90
2967;DHT22;1493;51.496;7.210;2023-10-08T06:00:50;17.20;99.90
2967;DHT22;1493;51.496;7.210;2023-10-08T06:03:33;17.30;99.90
2967;DHT22;1493;51.496;7.210;2023-10-08T06:06:11;17.30;99.90
2967;DHT22;1493;51.496;7.210;2023-10-08T06:09:04;17.30;99.90
2967;DHT22;1493;51.496;7.210;2023-10-08T06:12:01;17.40;99.90
2967;DHT22;1493;51.496;7.210;2023-10-08T06:14:38;17.40;99.90
2967;DHT22;1493;51.496;7.210;2023-10-08T06:17:27;17.40;99.90
2967;DHT22;1493;51.496;7.210;2023-10-08T06:20:21;17.40;99.90
2967;DHT22;1493;51.496;7.210;2023-10-08T06:22:51;17.40;99.90
2967;DHT22;1493;51.496;7.210;2023-10-08T06:25:25;17.40;99.90
2967;DHT22;1493;51.496;7.210;2023-10-08T06:27:54;17.40;99.90
2967;DHT22;1493;51.496;7.210;2023-10-08T06:30:23;17.30;99.90
2967;DHT22;1493;51.496;7.210;2023-10-08T06:32:55;17.30;99.90
2967;DHT22;1493;51.496;7.210;2023-10-08T06:35:22;17.30;99.90
2967;DHT22;1493;51.496;7.210;2023-10-08T06:37:51;17.40;99.90
2967;DHT22;1493;51.496;7.210;2023-10-08T06:40:21;17.40;99.90
2967;DHT22;1493;51.496;7.210;2023-10-08T06:43:16;17.40;99.90
2967;DHT22;1493;51.496;7.210;2023-10-08T06:45:47;17.30;99.90
2967;DHT22;1493;51.496;7.210;2023-10-08T06:48:19;17.30;99.90
2967;DHT22;1493;51.496;7.210;2023-10-08T06:50:47;17.30;99.90
2967;DHT22;1493;51.496;7.210;2023-10-08T06:53:15;17.30;99.90
2967;DHT22;1493;51.496;7.210;2023-10-08T06:55:44;17.30;99.90
2967;DHT22;1493;51.496;7.210;2023-10-08T06:58:13;17.20;99.90
2967;DHT22;1493;51.496;7.210;2023-10-08T07:00:41;17.20;99.90
2967;DHT22;1493;51.496;7.210;2023-10-08T07:03:15;17.20;99.90
2967;DHT22;1493;51.496;7.210;2023-10-08T07:05:44;17.20;99.90
2967;DHT22;1493;51.496;7.210;2023-10-08T07:08:20;17.30;99.90
2967;DHT22;1493;51.496;7.210;2023-10-08T07:10:49;17.20;99.90
2967;DHT22;1493;51.496;7.210;2023-10-08T07:13:15;17.20;99.90
2967;DHT22;1493;51.496;7.210;2023-10-08T07:15:44;17.10;99.90
2967;DHT22;1493;51.496;7.210;2023-10-08T07:18:11;17.20;99.90
2967;DHT22;1493;51.496;7.210;2023-10-08T07:20:44;17.20;99.90
2967;DHT22;1493;51.496;7.210;2023-10-08T07:23:11;17.30;99.90
2967;DHT22;1493;51.496;7.210;2023-10-08T07:25:54;17.20;99.90
2967;DHT22;1493;51.496;7.210;2023-10-08T07:28:27;17.30;99.90
2967;DHT22;1493;51.496;7.210;2023-10-08T07:30:57;17.30;99.90
2967;DHT22;1493;51.496;7.210;2023-10-08T07:33:23;17.30;99.90
2967;DHT22;1493;51.496;7.210;2023-10-08T07:36:02;17.30;99.90
2967;DHT22;1493;51.496;7.210;2023-10-08T07:38:37;17.30;99.90
2967;DHT22;1493;51.496;7.210;2023-10-08T07:41:04;17.20;99.90
2967;DHT22;1493;51.496;7.210;2023-10-08T07:43:31;17.10;99.90
2967;DHT22;1493;51.496;7.210;2023-10-08T07:46:00;17.00;99.90
2967;DHT22;1493;51.496;7.210;2023-10-08T07:48:27;17.00;99.90
2967;DHT22;1493;51.496;7.210;2023-10-08T07:50:55;17.00;99.90
2967;DHT22;1493;51.496;7.210;2023-10-08T07:53:22;17.00;99.90
2967;DHT22;1493;51.496;7.210;2023-10-08T07:55:50;16.90;99.90
2967;DHT22;1493;51.496;7.210;2023-10-08T07:58:17;16.80;99.90
2967;DHT22;1493;51.496;7.210;2023-10-08T08:00:45;16.80;99.90
2967;DHT22;1493;51.496;7.210;2023-10-08T08:03:22;16.80;99.90
2967;DHT22;1493;51.496;7.210;2023-10-08T08:05:50;16.80;99.90
2967;DHT22;1493;51.496;7.210;2023-10-08T08:08:22;16.70;99.90
2967;DHT22;1493;51.496;7.210;2023-10-08T08:10:52;16.70;99.90
2967;DHT22;1493;51.496;7.210;2023-10-08T08:13:24;16.70;99.90
2967;DHT22;1493;51.496;7.210;2023-10-08T08:15:54;16.60;99.90
2967;DHT22;1493;51.496;7.210;2023-10-08T08:18:27;16.60;99.90
2967;DHT22;1493;51.496;7.210;2023-10-08T08:21:00;16.50;99.90
2967;DHT22;1493;51.496;7.210;2023-10-08T08:23:28;16.40;99.90
2967;DHT22;1493;51.496;7.210;2023-10-08T08:25:55;16.40;99.90
2967;DHT22;1493;51.496;7.210;2023-10-08T08:28:32;16.40;99.90
2967;DHT22;1493;51.496;7.210;2023-10-08T08:31:02;16.30;99.90
2967;DHT22;1493;51.496;7.210;2023-10-08T08:33:31;16.30;99.90
2967;DHT22;1493;51.496;7.210;2023-10-08T08:36:18;16.20;99.90
2967;DHT22;1493;51.496;7.210;2023-10-08T08:38:45;16.20;99.90
2967;DHT22;1493;51.496;7.210;2023-10-08T08:41:13;16.10;99.90
2967;DHT22;1493;51.496;7.210;2023-10-08T08:43:43;16.10;99.90
2967;DHT22;1493;51.496;7.210;2023-10-08T08:46:10;16.10;99.90
2967;DHT22;1493;51.496;7.210;2023-10-08T08:48:41;16.10;99.90
2967;DHT22;1493;51.496;7.210;2023-10-08T08:51:10;16.10;99.90
2967;DHT22;1493;51.496;7.210;2023-10-08T08:53:38;16.10;99.90
2967;DHT22;1493;51.496;7.210;2023-10-08T08:56:07;16.10;99.90
2967;DHT22;1493;51.496;7.210;2023-10-08T08:58:35;16.10;99.90
2967;DHT22;1493;51.496;7.210;2023-10-08T09:01:03;16.10;99.90
2967;DHT22;1493;51.496;7.210;2023-10-08T09:03:31;16.10;99.90
2967;DHT22;1493;51.496;7.210;2023-10-08T09:05:59;16.10;99.90
2967;DHT22;1493;51.496;7.210;2023-10-08T09:08:28;16.00;99.90
2967;DHT22;1493;51.496;7.210;2023-10-08T09:10:58;16.00;99.90
2967;DHT22;1493;51.496;7.210;2023-10-08T09:13:27;16.10;99.90
2967;DHT22;1493;51.496;7.210;2023-10-08T09:15:57;16.00;99.90
2967;DHT22;1493;51.496;7.210;2023-10-08T09:18:24;16.00;99.90
2967;DHT22;1493;51.496;7.210;2023-10-08T09:20:52;16.00;99.90
2967;DHT22;1493;51.496;7.210;2023-10-08T09:23:22;16.00;99.90
2967;DHT22;1493;51.496;7.210;2023-10-08T09:25:50;15.90;99.90
2967;DHT22;1493;51.496;7.210;2023-10-08T09:28:26;15.90;99.90
2967;DHT22;1493;51.496;7.210;2023-10-08T09:30:54;15.80;99.90
2967;DHT22;1493;51.496;7.210;2023-10-08T09:33:24;15.80;99.90
2967;DHT22;1493;51.496;7.210;2023-10-08T09:35:51;15.70;99.90
2967;DHT22;1493;51.496;7.210;2023-10-08T09:38:22;15.70;99.90
2967;DHT22;1493;51.496;7.210;2023-10-08T09:40:49;15.70;99.90
2967;DHT22;1493;51.496;7.210;2023-10-08T09:43:19;15.50;99.90
2967;DHT22;1493;51.496;7.210;2023-10-08T09:45:48;15.50;99.90
2967;DHT22;1493;51.496;7.210;2023-10-08T09:48:20;15.50;99.90
2967;DHT22;1493;51.496;7.210;2023-10-08T09:50:52;15.50;99.90
2967;DHT22;1493;51.496;7.210;2023-10-08T09:53:25;15.50;99.90
2967;DHT22;1493;51.496;7.210;2023-10-08T09:55:56;15.50;99.90
2967;DHT22;1493;51.496;7.210;2023-10-08T09:58:24;15.50;99.90
2967;DHT22;1493;51.496;7.210;2023-10-08T10:00:55;15.60;99.90
2967;DHT22;1493;51.496;7.210;2023-10-08T10:03:23;15.60;99.90
2967;DHT22;1493;51.496;7.210;2023-10-08T10:05:51;15.80;99.90
2967;DHT22;1493;51.496;7.210;2023-10-08T10:08:20;15.60;99.90
2967;DHT22;1493;51.496;7.210;2023-10-08T10:10:58;15.70;99.90
2967;DHT22;1493;51.496;7.210;2023-10-08T10:13:28;15.80;99.90
2967;DHT22;1493;51.496;7.210;2023-10-08T10:15:55;15.80;99.90
2967;DHT22;1493;51.496;7.210;2023-10-08T10:18:28;15.80;99.90
2967;DHT22;1493;51.496;7.210;2023-10-08T10:20:58;15.80;99.90
2967;DHT22;1493;51.496;7.210;2023-10-08T10:23:36;15.90;99.90
2967;DHT22;1493;51.496;7.210;2023-10-08T10:26:04;15.80;99.90
2967;DHT22;1493;51.496;7.210;2023-10-08T10:28:35;15.80;99.90
2967;DHT22;1493;51.496;7.210;2023-10-08T10:31:03;15.70;99.90
2967;DHT22;1493;51.496;7.210;2023-10-08T10:33:30;15.70;99.90
2967;DHT22;1493;51.496;7.210;2023-10-08T10:36:00;15.70;99.90
2967;DHT22;1493;51.496;7.210;2023-10-08T10:38:27;15.70;99.90
2967;DHT22;1493;51.496;7.210;2023-10-08T10:40:56;15.60;99.90
2967;DHT22;1493;51.496;7.210;2023-10-08T10:43:29;15.70;99.90
2967;DHT22;1493;51.496;7.210;2023-10-08T10:46:00;15.80;99.90
2967;DHT22;1493;51.496;7.210;2023-10-08T10:48:45;15.80;99.90
2967;DHT22;1493;51.496;7.210;2023-10-08T10:51:22;15.80;99.90
2967;DHT22;1493;51.496;7.210;2023-10-08T10:53:50;15.80;99.90
2967;DHT22;1493;51.496;7.210;2023-10-08T10:56:29;15.70;99.90
2967;DHT22;1493;51.496;7.210;2023-10-08T10:59:00;15.80;99.90
2967;DHT22;1493;51.496;7.210;2023-10-08T11:01:31;15.70;99.90
2967;DHT22;1493;51.496;7.210;2023-10-08T11:04:10;15.60;99.90
2967;DHT22;1493;51.496;7.210;2023-10-08T11:06:41;15.70;99.90
2967;DHT22;1493;51.496;7.210;2023-10-08T11:09:10;15.80;99.90
2967;DHT22;1493;51.496;7.210;2023-10-08T11:11:41;15.80;99.90
2967;DHT22;1493;51.496;7.210;2023-10-08T11:14:11;15.90;99.90
2967;DHT22;1493;51.496;7.210;2023-10-08T11:16:42;16.00;99.90
2967;DHT22;1493;51.496;7.210;2023-10-08T11:19:11;16.00;99.90
2967;DHT22;1493;51.496;7.210;2023-10-08T11:21:51;16.20;99.90
2967;DHT22;1493;51.496;7.210;2023-10-08T11:24:28;16.30;99.90
2967;DHT22;1493;51.496;7.210;2023-10-08T11:26:59;16.20;99.90
2967;DHT22;1493;51.496;7.210;2023-10-08T11:29:43;16.30;99.90
2967;DHT22;1493;51.496;7.210;2023-10-08T11:32:11;16.30;99.90
2967;DHT22;1493;51.496;7.210;2023-10-08T11:34:41;16.30;99.90
2967;DHT22;1493;51.496;7.210;2023-10-08T11:37:08;16.30;99.90
2967;DHT22;1493;51.496;7.210;2023-10-08T11:39:46;16.20;99.90
2967;DHT22;1493;51.496;7.210;2023-10-08T11:42:14;16.20;99.90
2967;DHT22;1493;51.496;7.210;2023-10-08T11:45:08;16.30;99.90
2967;DHT22;1493;51.496;7.210;2023-10-08T11:47:51;16.30;99.90
2967;DHT22;1493;51.496;7.210;2023-10-08T11:50:23;16.40;99.90
2967;DHT22;1493;51.496;7.210;2023-10-08T11:52:57;16.40;99.90
2967;DHT22;1493;51.496;7.210;2023-10-08T11:55:27;16.40;99.90
2967;DHT22;1493;51.496;7.210;2023-10-08T11:57:54;16.40;99.90
2967;DHT22;1493;51.496;7.210;2023-10-08T12:00:24;16.60;99.90
2967;DHT22;1493;51.496;7.210;2023-10-08T12:02:52;16.70;99.90
2967;DHT22;1493;51.496;7.210;2023-10-08T12:05:21;16.70;99.90
2967;DHT22;1493;51.496;7.210;2023-10-08T12:07:51;16.70;99.90
2967;DHT22;1493;51.496;7.210;2023-10-08T12:10:18;16.70;99.90
2967;DHT22;1493;51.496;7.210;2023-10-08T12:12:48;16.70;99.90
2967;DHT22;1493;51.496;7.210;2023-10-08T12:15:15;16.80;99.90
2967;DHT22;1493;51.496;7.210;2023-10-08T12:17:47;16.70;99.90
2967;DHT22;1493;51.496;7.210;2023-10-08T12:20:34;16.80;99.90
2967;DHT22;1493;51.496;7.210;2023-10-08T12:23:02;16.70;99.90
2967;DHT22;1493;51.496;7.210;2023-10-08T12:25:29;16.80;99.90
2967;DHT22;1493;51.496;7.210;2023-10-08T12:27:58;16.80;99.90
2967;DHT22;1493;51.496;7.210;2023-10-08T12:30:28;16.80;99.90
2967;DHT22;1493;51.496;7.210;2023-10-08T12:32:58;16.70;99.90
2967;DHT22;1493;51.496;7.210;2023-10-08T12:35:26;16.80;99.90
2967;DHT22;1493;51.496;7.210;2023-10-08T12:37:55;16.90;99.90
2967;DHT22;1493;51.496;7.210;2023-10-08T12:40:22;16.90;99.90
2967;DHT22;1493;51.496;7.210;2023-10-08T12:42:50;17.10;99.90
2967;DHT22;1493;51.496;7.210;2023-10-08T12:45:17;17.00;99.90
2967;DHT22;1493;51.496;7.210;2023-10-08T12:47:50;17.00;99.90
2967;DHT22;1493;51.496;7.210;2023-10-08T12:50:20;16.90;99.90
2967;DHT22;1493;51.496;7.210;2023-10-08T12:52:54;16.80;99.90
2967;DHT22;1493;51.496;7.210;2023-10-08T12:55:21;16.90;99.90
2967;DHT22;1493;51.496;7.210;2023-10-08T12:57:51;17.00;99.90
2967;DHT22;1493;51.496;7.210;2023-10-08T13:00:22;17.10;99.90
2967;DHT22;1493;51.496;7.210;2023-10-08T13:02:50;17.10;99.90
2967;DHT22;1493;51.496;7.210;2023-10-08T13:05:20;17.20;99.90
2967;DHT22;1493;51.496;7.210;2023-10-08T13:07:54;17.10;99.90
2967;DHT22;1493;51.496;7.210;2023-10-08T13:10:22;17.20;99.90
2967;DHT22;1493;51.496;7.210;2023-10-08T13:12:49;17.30;99.90
2967;DHT22;1493;51.496;7.210;2023-10-08T13:15:16;17.20;99.90
2967;DHT22;1493;51.496;7.210;2023-10-08T13:17:43;17.20;99.90
2967;DHT22;1493;51.496;7.210;2023-10-08T13:20:11;17.30;99.90
2967;DHT22;1493;51.496;7.210;2023-10-08T13:22:40;17.30;99.90
2967;DHT22;1493;51.496;7.210;2023-10-08T13:25:09;17.30;99.90
2967;DHT22;1493;51.496;7.210;2023-10-08T13:27:37;17.20;99.90
2967;DHT22;1493;51.496;7.210;2023-10-08T13:30:06;17.30;99.90
2967;DHT22;1493;51.496;7.210;2023-10-08T13:32:34;17.30;99.90
2967;DHT22;1493;51.496;7.210;2023-10-08T13:35:03;17.30;99.90
2967;DHT22;1493;51.496;7.210;2023-10-08T13:37:32;17.40;99.90
2967;DHT22;1493;51.496;7.210;2023-10-08T13:40:00;17.50;99.90
2967;DHT22;1493;51.496;7.210;2023-10-08T13:42:28;17.60;99.90
2967;DHT22;1493;51.496;7.210;2023-10-08T13:44:55;17.60;99.90
2967;DHT22;1493;51.496;7.210;2023-10-08T13:47:23;17.60;99.90
2967;DHT22;1493;51.496;7.210;2023-10-08T13:49:51;17.60;99.90
2967;DHT22;1493;51.496;7.210;2023-10-08T13:52:18;17.60;99.90
2967;DHT22;1493;51.496;7.210;2023-10-08T13:54:51;17.50;99.90
2967;DHT22;1493;51.496;7.210;2023-10-08T13:57:19;17.40;99.90
2967;DHT22;1493;51.496;7.210;2023-10-08T13:59:47;17.40;99.90
2967;DHT22;1493;51.496;7.210;2023-10-08T14:02:14;17.40;99.90
2967;DHT22;1493;51.496;7.210;2023-10-08T14:04:41;17.30;99.90
2967;DHT22;1493;51.496;7.210;2023-10-08T14:07:09;17.20;99.90
2967;DHT22;1493;51.496;7.210;2023-10-08T14:09:37;17.10;99.90
2967;DHT22;1493;51.496;7.210;2023-10-08T14:12:07;17.20;99.90
2967;DHT22;1493;51.496;7.210;2023-10-08T14:14:37;17.20;99.90
2967;DHT22;1493;51.496;7.210;2023-10-08T14:17:09;17.10;99.90
2967;DHT22;1493;51.496;7.210;2023-10-08T14:19:40;17.20;99.90
2967;DHT22;1493;51.496;7.210;2023-10-08T14:22:12;17.30;99.90
2967;DHT22;1493;51.496;7.210;2023-10-08T14:24:40;17.30;99.90
2967;DHT22;1493;51.496;7.210;2023-10-08T14:27:07;17.30;99.90
2967;DHT22;1493;51.496;7.210;2023-10-08T14:29:38;17.30;99.90
2967;DHT22;1493;51.496;7.210;2023-10-08T14:32:06;17.30;99.90
2967;DHT22;1493;51.496;7.210;2023-10-08T14:34:35;17.30;99.90
2967;DHT22;1493;51.496;7.210;2023-10-08T14:37:20;17.30;99.90
2967;DHT22;1493;51.496;7.210;2023-10-08T14:40:04;17.30;99.90
2967;DHT22;1493;51.496;7.210;2023-10-08T14:42:49;17.30;99.90
2967;DHT22;1493;51.496;7.210;2023-10-08T14:45:23;17.30;99.90
2967;DHT22;1493;51.496;7.210;2023-10-08T14:47:53;17.30;99.90
2967;DHT22;1493;51.496;7.210;2023-10-08T14:50:20;17.20;99.90
2967;DHT22;1493;51.496;7.210;2023-10-08T14:52:47;17.20;99.90
2967;DHT22;1493;51.496;7.210;2023-10-08T14:55:14;17.20;99.90
2967;DHT22;1493;51.496;7.210;2023-10-08T14:57:41;17.30;99.90
2967;DHT22;1493;51.496;7.210;2023-10-08T15:00:09;17.30;99.90
2967;DHT22;1493;51.496;7.210;2023-10-08T15:02:38;17.30;99.90
2967;DHT22;1493;51.496;7.210;2023-10-08T15:05:05;17.20;99.90
2967;DHT22;1493;51.496;7.210;2023-10-08T15:07:33;17.20;99.90
2967;DHT22;1493;51.496;7.210;2023-10-08T15:10:00;17.20;99.90
2967;DHT22;1493;51.496;7.210;2023-10-08T15:12:27;17.30;99.90
2967;DHT22;1493;51.496;7.210;2023-10-08T15:14:54;17.30;99.90
2967;DHT22;1493;51.496;7.210;2023-10-08T15:17:20;17.30;99.90
2967;DHT22;1493;51.496;7.210;2023-10-08T15:19:49;17.20;99.90
2967;DHT22;1493;51.496;7.210;2023-10-08T15:22:17;17.20;99.90
2967;DHT22;1493;51.496;7.210;2023-10-08T15:24:43;17.20;99.90
2967;DHT22;1493;51.496;7.210;2023-10-08T15:27:10;17.10;99.90
2967;DHT22;1493;51.496;7.210;2023-10-08T15:29:37;17.10;99.90
2967;DHT22;1493;51.496;7.210;2023-10-08T15:32:04;17.20;99.90
2967;DHT22;1493;51.496;7.210;2023-10-08T15:34:31;17.20;99.90
2967;DHT22;1493;51.496;7.210;2023-10-08T15:36:59;17.20;99.90
2967;DHT22;1493;51.496;7.210;2023-10-08T15:39:26;17.10;99.90
2967;DHT22;1493;51.496;7.210;2023-10-08T15:41:54;17.10;99.90
2967;DHT22;1493;51.496;7.210;2023-10-08T15:44:22;17.10;99.90
2967;DHT22;1493;51.496;7.210;2023-10-08T15:46:49;17.00;99.90
2967;DHT22;1493;51.496;7.210;2023-10-08T15:49:16;17.00;99.90
2967;DHT22;1493;51.496;7.210;2023-10-08T15:51:45;17.00;99.90
2967;DHT22;1493;51.496;7.210;2023-10-08T15:54:13;17.00;99.90
2967;DHT22;1493;51.496;7.210;2023-10-08T15:56:43;17.00;99.90
2967;DHT22;1493;51.496;7.210;2023-10-08T15:59:10;17.00;99.90
2967;DHT22;1493;51.496;7.210;2023-10-08T16:01:37;16.90;99.90
2967;DHT22;1493;51.496;7.210;2023-10-08T16:04:04;16.90;99.90
2967;DHT22;1493;51.496;7.210;2023-10-08T16:06:32;16.90;99.90
2967;DHT22;1493;51.496;7.210;2023-10-08T16:08:59;16.90;99.90
2967;DHT22;1493;51.496;7.210;2023-10-08T16:11:27;16.90;99.90
2967;DHT22;1493;51.496;7.210;2023-10-08T16:13:55;16.90;99.90
2967;DHT22;1493;51.496;7.210;2023-10-08T16:16:22;16.90;99.90
2967;DHT22;1493;51.496;7.210;2023-10-08T16:18:49;16.90;99.90
2967;DHT22;1493;51.496;7.210;2023-10-08T16:21:15;16.90;99.90
2967;DHT22;1493;51.496;7.210;2023-10-08T16:23:46;16.90;99.90
2967;DHT22;1493;51.496;7.210;2023-10-08T16:26:13;16.80;99.90